METAR Data
IDs: Format: Raw Decoded Include TAF

Data at: 1124 UTC 26 Sep 2018

KIFP 260050Z 21004KT 10SM FEW090 38/05 A2978
KIFP 252353Z 20006KT 10SM FEW090 38/05 A2978
KIFP 252252Z 21004KT 10SM FEW100 39/03 A2979
KIFP 252157Z 25005KT 10SM FEW090 38/04 A2981
KIFP 252054Z 21006KT 10SM FEW100 38/03 A2983
KIFP 251951Z 19005KT 10SM FEW100 36/03 A2985
KIFP 251850Z 23004KT 20SM SCT110 36/03 A2988
KIFP 251757Z 29004KT 10SM SCT100 34/04 A2989
KIFP 251653Z 31004KT 10SM SCT100 33/04 A2989
KIFP 251547Z 36006 20SM BKN110 29/07 A2988
KIFP 251447Z 00000KT 20SM BKN110 26/05 A2986
KIFP 250048Z 17014KT 10SM FEW090 39/05 A2965
KIFP 242350Z 14009KT 10SM FEW090 39/06 A2965